Disclaimer

Please do not use the information listed here in-flight or in-navigation, as they are not provided to us by the airports but are provided by volunteers, so they might be outdated.

Search


Regions


Airport information page

Radio informations:
Tower (TWR) - 119.5 MHz
Automatic Terminal Information Service (ATIS) - 118.075 MHz
Approach (APP) - 121.0 MHz

Airport informations:
Latitude: 43° 13' 55.46" N
Longitude: 027° 49' 30.38" E
Elevation: 230 feet - 70 meters
Operating hours: 24 hour operations
Operating agency: Civil government, landing fees and diplomatic clearance may be required
Timezone: UTC+2(+3DT) - Last Sunday in March to last Sunday in October
Fuel: Unknown fuel type or whether there is any fuel.

Runway information:
09/27 - 8202 x 180 feet< - >2500 x 55 meters

Recent METARs:
LBWN 211630Z 11004KT 070V140 9999 RA OVC013 09/07 Q1016 NOSIG
LBWN 211700Z 04008KT 9999 RA BKN011 OVC019 08/07 Q1016 NOSIG
LBWN 211730Z 02008KT 9999 RA FEW012 SCT017 OVC040 08/06 Q1016 NOSIG

Airport on the map: